sensor_id;sensor_type;location;lat;lon;timestamp;temperature;humidity
16955;DHT22;8594;52.052;8.354;2023-02-01T00:00:00;5.80;99.90
16955;DHT22;8594;52.052;8.354;2023-02-01T00:02:28;5.90;99.90
16955;DHT22;8594;52.052;8.354;2023-02-01T00:04:54;5.70;99.90
16955;DHT22;8594;52.052;8.354;2023-02-01T00:07:21;5.80;99.90
16955;DHT22;8594;52.052;8.354;2023-02-01T00:09:48;5.70;99.90
16955;DHT22;8594;52.052;8.354;2023-02-01T00:12:15;5.80;99.90
16955;DHT22;8594;52.052;8.354;2023-02-01T00:14:43;5.90;99.90
16955;DHT22;8594;52.052;8.354;2023-02-01T00:17:10;5.80;99.90
16955;DHT22;8594;52.052;8.354;2023-02-01T00:19:36;5.80;99.90
16955;DHT22;8594;52.052;8.354;2023-02-01T00:22:03;5.90;99.90
16955;DHT22;8594;52.052;8.354;2023-02-01T00:24:30;5.90;99.90
16955;DHT22;8594;52.052;8.354;2023-02-01T00:26:57;6.00;99.90
16955;DHT22;8594;52.052;8.354;2023-02-01T00:29:24;5.90;99.90
16955;DHT22;8594;52.052;8.354;2023-02-01T00:31:52;5.80;99.90
16955;DHT22;8594;52.052;8.354;2023-02-01T00:34:20;5.90;99.90
16955;DHT22;8594;52.052;8.354;2023-02-01T00:36:47;5.80;99.90
16955;DHT22;8594;52.052;8.354;2023-02-01T00:39:14;5.70;99.90
16955;DHT22;8594;52.052;8.354;2023-02-01T00:41:42;5.70;99.90
16955;DHT22;8594;52.052;8.354;2023-02-01T00:44:09;5.60;99.90
16955;DHT22;8594;52.052;8.354;2023-02-01T00:46:36;5.80;99.90
16955;DHT22;8594;52.052;8.354;2023-02-01T00:49:04;5.80;99.90
16955;DHT22;8594;52.052;8.354;2023-02-01T00:51:32;5.90;99.90
16955;DHT22;8594;52.052;8.354;2023-02-01T00:53:59;5.70;99.90
16955;DHT22;8594;52.052;8.354;2023-02-01T00:56:26;5.70;99.90
16955;DHT22;8594;52.052;8.354;2023-02-01T00:58:53;5.70;99.90
16955;DHT22;8594;52.052;8.354;2023-02-01T01:01:22;5.60;99.90
16955;DHT22;8594;52.052;8.354;2023-02-01T01:03:53;5.70;99.90
16955;DHT22;8594;52.052;8.354;2023-02-01T01:06:23;5.70;99.90
16955;DHT22;8594;52.052;8.354;2023-02-01T01:08:53;5.70;99.90
16955;DHT22;8594;52.052;8.354;2023-02-01T01:11:23;5.70;99.90
16955;DHT22;8594;52.052;8.354;2023-02-01T01:13:53;5.60;99.90
16955;DHT22;8594;52.052;8.354;2023-02-01T01:16:22;5.70;99.90
16955;DHT22;8594;52.052;8.354;2023-02-01T01:18:51;5.60;99.90
16955;DHT22;8594;52.052;8.354;2023-02-01T01:21:21;5.70;99.90
16955;DHT22;8594;52.052;8.354;2023-02-01T01:23:48;5.60;99.90
16955;DHT22;8594;52.052;8.354;2023-02-01T01:26:17;5.60;99.90
16955;DHT22;8594;52.052;8.354;2023-02-01T01:28:45;5.60;99.90
16955;DHT22;8594;52.052;8.354;2023-02-01T01:31:14;5.70;99.90
16955;DHT22;8594;52.052;8.354;2023-02-01T01:33:42;5.60;99.90
16955;DHT22;8594;52.052;8.354;2023-02-01T01:36:11;5.70;99.90
16955;DHT22;8594;52.052;8.354;2023-02-01T01:38:40;5.70;99.90
16955;DHT22;8594;52.052;8.354;2023-02-01T01:41:08;5.80;99.90
16955;DHT22;8594;52.052;8.354;2023-02-01T01:43:56;5.70;99.90
16955;DHT22;8594;52.052;8.354;2023-02-01T01:46:25;5.70;99.90
16955;DHT22;8594;52.052;8.354;2023-02-01T01:49:01;5.60;99.90
16955;DHT22;8594;52.052;8.354;2023-02-01T01:51:35;5.60;99.90
16955;DHT22;8594;52.052;8.354;2023-02-01T01:54:09;5.70;99.90
16955;DHT22;8594;52.052;8.354;2023-02-01T01:56:41;5.80;99.90
16955;DHT22;8594;52.052;8.354;2023-02-01T01:59:09;5.80;99.90
16955;DHT22;8594;52.052;8.354;2023-02-01T02:01:36;5.70;99.90
16955;DHT22;8594;52.052;8.354;2023-02-01T02:04:03;5.90;99.90
16955;DHT22;8594;52.052;8.354;2023-02-01T02:06:37;5.90;99.90
16955;DHT22;8594;52.052;8.354;2023-02-01T02:09:12;5.80;99.90
16955;DHT22;8594;52.052;8.354;2023-02-01T02:11:39;5.70;99.90
16955;DHT22;8594;52.052;8.354;2023-02-01T02:14:08;5.60;99.90
16955;DHT22;8594;52.052;8.354;2023-02-01T02:16:54;5.70;99.90
16955;DHT22;8594;52.052;8.354;2023-02-01T02:23:22;5.70;99.90
16955;DHT22;8594;52.052;8.354;2023-02-01T02:30:08;5.80;99.90
16955;DHT22;8594;52.052;8.354;2023-02-01T02:36:12;5.70;99.90
16955;DHT22;8594;52.052;8.354;2023-02-01T02:38:50;5.70;99.90
16955;DHT22;8594;52.052;8.354;2023-02-01T02:41:27;5.80;99.90
16955;DHT22;8594;52.052;8.354;2023-02-01T02:44:23;5.80;99.90
16955;DHT22;8594;52.052;8.354;2023-02-01T02:47:23;5.90;99.90
16955;DHT22;8594;52.052;8.354;2023-02-01T02:50:05;6.00;99.90
16955;DHT22;8594;52.052;8.354;2023-02-01T02:52:59;6.00;99.90
16955;DHT22;8594;52.052;8.354;2023-02-01T02:55:48;6.00;99.90
16955;DHT22;8594;52.052;8.354;2023-02-01T02:58:19;5.90;99.90
16955;DHT22;8594;52.052;8.354;2023-02-01T03:01:05;5.90;99.90
16955;DHT22;8594;52.052;8.354;2023-02-01T03:03:50;5.90;99.90
16955;DHT22;8594;52.052;8.354;2023-02-01T03:06:36;5.90;99.90
16955;DHT22;8594;52.052;8.354;2023-02-01T03:09:11;5.90;99.90
16955;DHT22;8594;52.052;8.354;2023-02-01T03:11:43;6.00;99.90
16955;DHT22;8594;52.052;8.354;2023-02-01T03:14:32;6.00;99.90
16955;DHT22;8594;52.052;8.354;2023-02-01T03:17:07;6.00;99.90
16955;DHT22;8594;52.052;8.354;2023-02-01T03:19:41;6.00;99.90
16955;DHT22;8594;52.052;8.354;2023-02-01T03:22:17;6.10;99.90
16955;DHT22;8594;52.052;8.354;2023-02-01T03:24:51;6.10;99.90
16955;DHT22;8594;52.052;8.354;2023-02-01T03:27:22;6.10;99.90
16955;DHT22;8594;52.052;8.354;2023-02-01T03:29:56;6.00;99.90
16955;DHT22;8594;52.052;8.354;2023-02-01T03:32:28;6.00;99.90
16955;DHT22;8594;52.052;8.354;2023-02-01T03:35:15;5.90;99.90
16955;DHT22;8594;52.052;8.354;2023-02-01T03:37:44;6.00;99.90
16955;DHT22;8594;52.052;8.354;2023-02-01T03:40:13;6.10;99.90
16955;DHT22;8594;52.052;8.354;2023-02-01T03:42:48;6.10;99.90
16955;DHT22;8594;52.052;8.354;2023-02-01T03:45:21;6.20;99.90
16955;DHT22;8594;52.052;8.354;2023-02-01T03:47:55;6.20;99.90
16955;DHT22;8594;52.052;8.354;2023-02-01T03:50:24;6.10;99.90
16955;DHT22;8594;52.052;8.354;2023-02-01T03:52:58;6.00;99.90
16955;DHT22;8594;52.052;8.354;2023-02-01T03:55:30;6.00;99.90
16955;DHT22;8594;52.052;8.354;2023-02-01T03:58:02;6.10;99.90
16955;DHT22;8594;52.052;8.354;2023-02-01T04:00:33;6.10;99.90
16955;DHT22;8594;52.052;8.354;2023-02-01T04:03:02;6.20;99.90
16955;DHT22;8594;52.052;8.354;2023-02-01T04:05:31;6.10;99.90
16955;DHT22;8594;52.052;8.354;2023-02-01T04:08:00;6.20;99.90
16955;DHT22;8594;52.052;8.354;2023-02-01T04:10:27;6.10;99.90
16955;DHT22;8594;52.052;8.354;2023-02-01T04:12:54;6.10;99.90
16955;DHT22;8594;52.052;8.354;2023-02-01T04:15:21;6.30;99.90
16955;DHT22;8594;52.052;8.354;2023-02-01T04:17:47;6.10;99.90
16955;DHT22;8594;52.052;8.354;2023-02-01T04:20:14;6.00;99.90
16955;DHT22;8594;52.052;8.354;2023-02-01T04:22:42;6.10;99.90
16955;DHT22;8594;52.052;8.354;2023-02-01T04:25:10;6.00;99.90
16955;DHT22;8594;52.052;8.354;2023-02-01T04:27:37;6.10;99.90
16955;DHT22;8594;52.052;8.354;2023-02-01T04:30:04;6.20;99.90
16955;DHT22;8594;52.052;8.354;2023-02-01T04:32:35;6.20;99.90
16955;DHT22;8594;52.052;8.354;2023-02-01T04:35:01;6.00;99.90
16955;DHT22;8594;52.052;8.354;2023-02-01T04:37:28;6.00;99.90
16955;DHT22;8594;52.052;8.354;2023-02-01T04:39:55;6.00;99.90
16955;DHT22;8594;52.052;8.354;2023-02-01T04:42:23;5.90;99.90
16955;DHT22;8594;52.052;8.354;2023-02-01T04:44:50;6.00;99.90
16955;DHT22;8594;52.052;8.354;2023-02-01T04:47:17;6.00;99.90
16955;DHT22;8594;52.052;8.354;2023-02-01T04:49:44;6.00;99.90
16955;DHT22;8594;52.052;8.354;2023-02-01T04:52:11;5.90;99.90
16955;DHT22;8594;52.052;8.354;2023-02-01T04:54:38;5.80;99.90
16955;DHT22;8594;52.052;8.354;2023-02-01T04:57:05;5.80;99.90
16955;DHT22;8594;52.052;8.354;2023-02-01T04:59:33;5.80;99.90
16955;DHT22;8594;52.052;8.354;2023-02-01T05:02:00;5.60;99.90
16955;DHT22;8594;52.052;8.354;2023-02-01T05:04:27;5.60;99.90
16955;DHT22;8594;52.052;8.354;2023-02-01T05:06:54;5.70;99.90
16955;DHT22;8594;52.052;8.354;2023-02-01T05:09:21;5.70;99.90
16955;DHT22;8594;52.052;8.354;2023-02-01T05:11:49;5.70;99.90
16955;DHT22;8594;52.052;8.354;2023-02-01T05:14:35;5.90;99.90
16955;DHT22;8594;52.052;8.354;2023-02-01T05:17:02;5.90;99.90
16955;DHT22;8594;52.052;8.354;2023-02-01T05:19:29;5.70;99.90
16955;DHT22;8594;52.052;8.354;2023-02-01T05:21:56;5.60;99.90
16955;DHT22;8594;52.052;8.354;2023-02-01T05:24:22;5.60;99.90
16955;DHT22;8594;52.052;8.354;2023-02-01T05:26:49;5.70;99.90
16955;DHT22;8594;52.052;8.354;2023-02-01T05:29:18;5.80;99.90
16955;DHT22;8594;52.052;8.354;2023-02-01T05:31:47;5.90;99.90
16955;DHT22;8594;52.052;8.354;2023-02-01T05:34:14;5.80;99.90
16955;DHT22;8594;52.052;8.354;2023-02-01T05:36:41;5.80;99.90
16955;DHT22;8594;52.052;8.354;2023-02-01T05:39:09;5.70;99.90
16955;DHT22;8594;52.052;8.354;2023-02-01T05:41:36;5.80;99.90
16955;DHT22;8594;52.052;8.354;2023-02-01T05:44:03;5.70;99.90
16955;DHT22;8594;52.052;8.354;2023-02-01T05:46:35;5.70;99.90
16955;DHT22;8594;52.052;8.354;2023-02-01T05:49:04;5.80;99.90
16955;DHT22;8594;52.052;8.354;2023-02-01T05:51:31;5.80;99.90
16955;DHT22;8594;52.052;8.354;2023-02-01T05:53:58;5.70;99.90
16955;DHT22;8594;52.052;8.354;2023-02-01T05:56:25;5.70;99.90
16955;DHT22;8594;52.052;8.354;2023-02-01T05:58:52;5.70;99.90
16955;DHT22;8594;52.052;8.354;2023-02-01T06:01:19;6.00;99.90
16955;DHT22;8594;52.052;8.354;2023-02-01T06:03:46;6.00;99.90
16955;DHT22;8594;52.052;8.354;2023-02-01T06:06:14;6.10;99.90
16955;DHT22;8594;52.052;8.354;2023-02-01T06:08:40;6.00;99.90
16955;DHT22;8594;52.052;8.354;2023-02-01T06:11:07;6.00;99.90
16955;DHT22;8594;52.052;8.354;2023-02-01T06:13:34;5.90;99.90
16955;DHT22;8594;52.052;8.354;2023-02-01T06:16:04;5.90;99.90
16955;DHT22;8594;52.052;8.354;2023-02-01T06:18:32;5.90;99.90
16955;DHT22;8594;52.052;8.354;2023-02-01T06:21:00;5.90;99.90
16955;DHT22;8594;52.052;8.354;2023-02-01T06:23:29;5.90;99.90
16955;DHT22;8594;52.052;8.354;2023-02-01T06:26:01;6.00;99.90
16955;DHT22;8594;52.052;8.354;2023-02-01T06:28:30;5.90;99.90
16955;DHT22;8594;52.052;8.354;2023-02-01T06:31:02;6.00;99.90
16955;DHT22;8594;52.052;8.354;2023-02-01T06:33:31;6.00;99.90
16955;DHT22;8594;52.052;8.354;2023-02-01T06:35:59;6.00;99.90
16955;DHT22;8594;52.052;8.354;2023-02-01T06:38:28;5.80;99.90
16955;DHT22;8594;52.052;8.354;2023-02-01T06:40:57;6.00;99.90
16955;DHT22;8594;52.052;8.354;2023-02-01T06:43:26;6.00;99.90
16955;DHT22;8594;52.052;8.354;2023-02-01T06:45:53;5.90;99.90
16955;DHT22;8594;52.052;8.354;2023-02-01T06:48:25;5.90;99.90
16955;DHT22;8594;52.052;8.354;2023-02-01T06:50:51;6.00;99.90
16955;DHT22;8594;52.052;8.354;2023-02-01T06:53:18;6.10;99.90
16955;DHT22;8594;52.052;8.354;2023-02-01T06:55:53;6.20;99.90
16955;DHT22;8594;52.052;8.354;2023-02-01T06:58:20;6.20;99.90
16955;DHT22;8594;52.052;8.354;2023-02-01T07:00:47;6.20;99.90
16955;DHT22;8594;52.052;8.354;2023-02-01T07:03:14;6.30;99.90
16955;DHT22;8594;52.052;8.354;2023-02-01T07:05:41;6.20;99.90
16955;DHT22;8594;52.052;8.354;2023-02-01T07:08:08;6.30;99.90
16955;DHT22;8594;52.052;8.354;2023-02-01T07:10:35;6.40;99.90
16955;DHT22;8594;52.052;8.354;2023-02-01T07:13:03;6.30;99.90
16955;DHT22;8594;52.052;8.354;2023-02-01T07:15:30;6.50;99.90
16955;DHT22;8594;52.052;8.354;2023-02-01T07:17:57;6.50;99.90
16955;DHT22;8594;52.052;8.354;2023-02-01T07:20:24;6.50;99.90
16955;DHT22;8594;52.052;8.354;2023-02-01T07:22:55;6.30;99.90
16955;DHT22;8594;52.052;8.354;2023-02-01T07:25:22;6.40;99.90
16955;DHT22;8594;52.052;8.354;2023-02-01T07:27:49;6.40;99.90
16955;DHT22;8594;52.052;8.354;2023-02-01T07:30:18;6.40;99.90
16955;DHT22;8594;52.052;8.354;2023-02-01T07:32:45;6.50;99.90
16955;DHT22;8594;52.052;8.354;2023-02-01T07:35:12;6.30;99.90
16955;DHT22;8594;52.052;8.354;2023-02-01T07:37:42;6.20;99.90
16955;DHT22;8594;52.052;8.354;2023-02-01T07:40:10;6.30;99.90
16955;DHT22;8594;52.052;8.354;2023-02-01T07:42:38;6.40;99.90
16955;DHT22;8594;52.052;8.354;2023-02-01T07:45:06;6.20;99.90
16955;DHT22;8594;52.052;8.354;2023-02-01T07:47:34;6.30;99.90
16955;DHT22;8594;52.052;8.354;2023-02-01T07:50:01;6.30;99.90
16955;DHT22;8594;52.052;8.354;2023-02-01T07:52:28;6.30;99.90
16955;DHT22;8594;52.052;8.354;2023-02-01T07:54:55;6.40;99.90
16955;DHT22;8594;52.052;8.354;2023-02-01T07:57:22;6.40;99.90
16955;DHT22;8594;52.052;8.354;2023-02-01T07:59:48;6.30;99.90
16955;DHT22;8594;52.052;8.354;2023-02-01T08:02:34;6.30;99.90
16955;DHT22;8594;52.052;8.354;2023-02-01T08:05:01;6.30;99.90
16955;DHT22;8594;52.052;8.354;2023-02-01T08:07:27;6.30;99.90
16955;DHT22;8594;52.052;8.354;2023-02-01T08:09:54;6.20;99.90
16955;DHT22;8594;52.052;8.354;2023-02-01T08:12:21;6.20;99.90
16955;DHT22;8594;52.052;8.354;2023-02-01T08:14:48;6.20;99.90
16955;DHT22;8594;52.052;8.354;2023-02-01T08:17:15;6.30;99.90
16955;DHT22;8594;52.052;8.354;2023-02-01T08:19:43;6.30;99.90
16955;DHT22;8594;52.052;8.354;2023-02-01T08:22:10;6.30;99.90
16955;DHT22;8594;52.052;8.354;2023-02-01T08:24:36;6.30;99.90
16955;DHT22;8594;52.052;8.354;2023-02-01T08:27:05;6.30;99.90
16955;DHT22;8594;52.052;8.354;2023-02-01T08:29:32;6.50;99.90
16955;DHT22;8594;52.052;8.354;2023-02-01T08:31:59;6.50;99.90
16955;DHT22;8594;52.052;8.354;2023-02-01T08:34:26;6.30;99.90
16955;DHT22;8594;52.052;8.354;2023-02-01T08:36:54;6.30;99.90
16955;DHT22;8594;52.052;8.354;2023-02-01T08:39:24;6.30;99.90
16955;DHT22;8594;52.052;8.354;2023-02-01T08:41:51;6.30;99.90
16955;DHT22;8594;52.052;8.354;2023-02-01T08:44:31;6.40;99.90
16955;DHT22;8594;52.052;8.354;2023-02-01T08:46:58;6.40;99.90
16955;DHT22;8594;52.052;8.354;2023-02-01T08:49:25;6.50;99.90
16955;DHT22;8594;52.052;8.354;2023-02-01T08:51:53;6.50;99.90
16955;DHT22;8594;52.052;8.354;2023-02-01T08:54:20;6.60;99.90
16955;DHT22;8594;52.052;8.354;2023-02-01T08:56:48;6.60;99.90
16955;DHT22;8594;52.052;8.354;2023-02-01T08:59:14;6.70;99.90
16955;DHT22;8594;52.052;8.354;2023-02-01T09:01:41;6.80;99.90
16955;DHT22;8594;52.052;8.354;2023-02-01T09:04:08;6.90;99.90
16955;DHT22;8594;52.052;8.354;2023-02-01T09:06:35;7.00;99.90
16955;DHT22;8594;52.052;8.354;2023-02-01T09:09:03;7.20;99.90
16955;DHT22;8594;52.052;8.354;2023-02-01T09:11:30;7.20;99.90
16955;DHT22;8594;52.052;8.354;2023-02-01T09:13:56;7.20;99.90
16955;DHT22;8594;52.052;8.354;2023-02-01T09:16:23;7.10;99.90
16955;DHT22;8594;52.052;8.354;2023-02-01T09:18:50;7.10;99.90
16955;DHT22;8594;52.052;8.354;2023-02-01T09:21:17;7.20;99.90
16955;DHT22;8594;52.052;8.354;2023-02-01T09:23:44;7.00;99.90
16955;DHT22;8594;52.052;8.354;2023-02-01T09:26:14;7.20;99.90
16955;DHT22;8594;52.052;8.354;2023-02-01T09:28:41;7.10;99.90
16955;DHT22;8594;52.052;8.354;2023-02-01T09:31:08;7.10;99.90
16955;DHT22;8594;52.052;8.354;2023-02-01T09:33:35;6.90;99.90
16955;DHT22;8594;52.052;8.354;2023-02-01T09:36:04;6.90;99.90
16955;DHT22;8594;52.052;8.354;2023-02-01T09:38:32;7.00;99.90
16955;DHT22;8594;52.052;8.354;2023-02-01T09:40:59;7.00;99.90
16955;DHT22;8594;52.052;8.354;2023-02-01T09:43:40;7.00;99.90
16955;DHT22;8594;52.052;8.354;2023-02-01T09:46:20;6.80;99.90
16955;DHT22;8594;52.052;8.354;2023-02-01T09:48:53;6.90;99.90
16955;DHT22;8594;52.052;8.354;2023-02-01T09:51:24;7.00;99.90
16955;DHT22;8594;52.052;8.354;2023-02-01T09:54:00;7.10;99.90
16955;DHT22;8594;52.052;8.354;2023-02-01T09:56:35;7.20;99.90
16955;DHT22;8594;52.052;8.354;2023-02-01T09:59:13;7.50;99.90
16955;DHT22;8594;52.052;8.354;2023-02-01T10:01:49;7.40;99.90
16955;DHT22;8594;52.052;8.354;2023-02-01T10:04:17;7.30;99.90
16955;DHT22;8594;52.052;8.354;2023-02-01T10:06:56;7.40;99.90
16955;DHT22;8594;52.052;8.354;2023-02-01T10:09:42;7.40;99.90
16955;DHT22;8594;52.052;8.354;2023-02-01T10:15:38;7.40;99.90
16955;DHT22;8594;52.052;8.354;2023-02-01T10:18:27;7.60;99.90
16955;DHT22;8594;52.052;8.354;2023-02-01T10:21:10;7.60;99.90
16955;DHT22;8594;52.052;8.354;2023-02-01T10:24:02;7.50;99.90
16955;DHT22;8594;52.052;8.354;2023-02-01T10:26:44;7.60;99.90
16955;DHT22;8594;52.052;8.354;2023-02-01T10:29:16;7.50;99.90
16955;DHT22;8594;52.052;8.354;2023-02-01T10:31:46;7.50;99.90
16955;DHT22;8594;52.052;8.354;2023-02-01T10:34:18;7.60;99.90
16955;DHT22;8594;52.052;8.354;2023-02-01T10:36:53;7.50;99.90
16955;DHT22;8594;52.052;8.354;2023-02-01T10:39:23;7.40;99.90
16955;DHT22;8594;52.052;8.354;2023-02-01T10:41:50;7.30;99.90
16955;DHT22;8594;52.052;8.354;2023-02-01T10:44:20;7.30;99.90
16955;DHT22;8594;52.052;8.354;2023-02-01T10:46:51;7.40;99.90
16955;DHT22;8594;52.052;8.354;2023-02-01T10:49:22;7.40;99.90
16955;DHT22;8594;52.052;8.354;2023-02-01T10:52:00;7.60;99.90
16955;DHT22;8594;52.052;8.354;2023-02-01T10:54:34;7.70;99.90
16955;DHT22;8594;52.052;8.354;2023-02-01T10:57:07;7.60;99.90
16955;DHT22;8594;52.052;8.354;2023-02-01T10:59:35;7.50;99.90
16955;DHT22;8594;52.052;8.354;2023-02-01T11:02:15;7.50;99.90
16955;DHT22;8594;52.052;8.354;2023-02-01T11:04:46;7.40;99.90
16955;DHT22;8594;52.052;8.354;2023-02-01T11:07:17;7.50;99.90
16955;DHT22;8594;52.052;8.354;2023-02-01T11:09:51;7.40;99.90
16955;DHT22;8594;52.052;8.354;2023-02-01T11:12:27;7.50;99.90
16955;DHT22;8594;52.052;8.354;2023-02-01T11:15:11;7.50;99.90
16955;DHT22;8594;52.052;8.354;2023-02-01T11:17:43;7.40;99.90
16955;DHT22;8594;52.052;8.354;2023-02-01T11:20:14;7.50;99.90
16955;DHT22;8594;52.052;8.354;2023-02-01T11:22:48;7.50;99.90
16955;DHT22;8594;52.052;8.354;2023-02-01T11:25:19;7.60;99.90
16955;DHT22;8594;52.052;8.354;2023-02-01T11:27:48;7.60;99.90
16955;DHT22;8594;52.052;8.354;2023-02-01T11:30:19;7.50;99.90
16955;DHT22;8594;52.052;8.354;2023-02-01T11:32:55;7.50;99.90
16955;DHT22;8594;52.052;8.354;2023-02-01T11:35:23;7.50;99.90
16955;DHT22;8594;52.052;8.354;2023-02-01T11:37:54;7.60;99.90
16955;DHT22;8594;52.052;8.354;2023-02-01T11:40:28;7.60;99.90
16955;DHT22;8594;52.052;8.354;2023-02-01T11:43:13;7.40;99.90
16955;DHT22;8594;52.052;8.354;2023-02-01T11:45:54;7.40;99.90
16955;DHT22;8594;52.052;8.354;2023-02-01T11:48:25;7.30;99.90
16955;DHT22;8594;52.052;8.354;2023-02-01T11:51:03;7.40;99.90
16955;DHT22;8594;52.052;8.354;2023-02-01T11:53:53;7.30;99.90
16955;DHT22;8594;52.052;8.354;2023-02-01T11:56:36;7.30;99.90
16955;DHT22;8594;52.052;8.354;2023-02-01T11:59:13;7.20;99.90
16955;DHT22;8594;52.052;8.354;2023-02-01T12:02:11;6.90;99.90
16955;DHT22;8594;52.052;8.354;2023-02-01T12:05:10;7.10;99.90
16955;DHT22;8594;52.052;8.354;2023-02-01T12:07:55;7.10;99.90
16955;DHT22;8594;52.052;8.354;2023-02-01T12:10:43;7.00;99.90
16955;DHT22;8594;52.052;8.354;2023-02-01T12:13:27;6.60;99.90
16955;DHT22;8594;52.052;8.354;2023-02-01T12:16:10;6.80;99.90
16955;DHT22;8594;52.052;8.354;2023-02-01T12:22:04;6.60;99.90
16955;DHT22;8594;52.052;8.354;2023-02-01T12:24:57;6.60;99.90
16955;DHT22;8594;52.052;8.354;2023-02-01T12:27:51;6.70;99.90
16955;DHT22;8594;52.052;8.354;2023-02-01T12:34:01;6.70;99.90
16955;DHT22;8594;52.052;8.354;2023-02-01T12:36:46;6.50;99.90
16955;DHT22;8594;52.052;8.354;2023-02-01T12:39:23;6.50;99.90
16955;DHT22;8594;52.052;8.354;2023-02-01T12:42:00;6.50;99.90
16955;DHT22;8594;52.052;8.354;2023-02-01T12:44:40;6.30;99.90
16955;DHT22;8594;52.052;8.354;2023-02-01T12:47:17;6.30;99.90
16955;DHT22;8594;52.052;8.354;2023-02-01T12:49:54;6.20;99.90
16955;DHT22;8594;52.052;8.354;2023-02-01T12:52:29;6.10;99.90
16955;DHT22;8594;52.052;8.354;2023-02-01T12:55:07;6.30;99.90
16955;DHT22;8594;52.052;8.354;2023-02-01T12:57:47;6.20;99.90
16955;DHT22;8594;52.052;8.354;2023-02-01T13:00:23;6.20;99.90
16955;DHT22;8594;52.052;8.354;2023-02-01T13:03:01;6.30;99.90
16955;DHT22;8594;52.052;8.354;2023-02-01T13:05:48;6.30;99.90
16955;DHT22;8594;52.052;8.354;2023-02-01T13:08:21;6.40;99.90
16955;DHT22;8594;52.052;8.354;2023-02-01T13:10:57;6.50;99.90
16955;DHT22;8594;52.052;8.354;2023-02-01T13:13:31;6.40;99.90
16955;DHT22;8594;52.052;8.354;2023-02-01T13:16:16;6.40;99.90
16955;DHT22;8594;52.052;8.354;2023-02-01T13:18:56;6.50;99.90
16955;DHT22;8594;52.052;8.354;2023-02-01T13:21:31;6.40;99.90
16955;DHT22;8594;52.052;8.354;2023-02-01T13:24:01;6.40;99.90
16955;DHT22;8594;52.052;8.354;2023-02-01T13:26:30;6.50;99.90
16955;DHT22;8594;52.052;8.354;2023-02-01T13:28:59;6.60;99.90
16955;DHT22;8594;52.052;8.354;2023-02-01T13:31:57;6.50;99.90
16955;DHT22;8594;52.052;8.354;2023-02-01T13:35:14;6.60;99.90
16955;DHT22;8594;52.052;8.354;2023-02-01T13:38:20;6.60;99.90
16955;DHT22;8594;52.052;8.354;2023-02-01T13:41:23;6.60;99.90
16955;DHT22;8594;52.052;8.354;2023-02-01T13:43:57;6.60;99.90
16955;DHT22;8594;52.052;8.354;2023-02-01T13:46:26;6.70;99.90
16955;DHT22;8594;52.052;8.354;2023-02-01T13:48:56;6.70;99.90
16955;DHT22;8594;52.052;8.354;2023-02-01T13:51:35;6.60;99.90
16955;DHT22;8594;52.052;8.354;2023-02-01T13:54:04;6.70;99.90
16955;DHT22;8594;52.052;8.354;2023-02-01T13:56:40;6.70;99.90
16955;DHT22;8594;52.052;8.354;2023-02-01T14:02:47;6.70;99.90
16955;DHT22;8594;52.052;8.354;2023-02-01T14:05:55;6.70;99.90
16955;DHT22;8594;52.052;8.354;2023-02-01T14:09:17;6.70;99.90
16955;DHT22;8594;52.052;8.354;2023-02-01T14:12:45;6.60;99.90
16955;DHT22;8594;52.052;8.354;2023-02-01T14:15:21;6.40;99.90
16955;DHT22;8594;52.052;8.354;2023-02-01T14:17:51;6.50;99.90
16955;DHT22;8594;52.052;8.354;2023-02-01T14:20:46;6.30;99.90
16955;DHT22;8594;52.052;8.354;2023-02-01T14:23:29;6.30;99.90
16955;DHT22;8594;52.052;8.354;2023-02-01T14:26:16;6.20;99.90
16955;DHT22;8594;52.052;8.354;2023-02-01T14:29:00;6.10;99.90
16955;DHT22;8594;52.052;8.354;2023-02-01T14:31:47;5.80;99.90
16955;DHT22;8594;52.052;8.354;2023-02-01T14:34:23;5.50;99.90
16955;DHT22;8594;52.052;8.354;2023-02-01T14:36:58;5.30;99.90
16955;DHT22;8594;52.052;8.354;2023-02-01T14:39:35;5.50;99.90
16955;DHT22;8594;52.052;8.354;2023-02-01T14:42:20;5.70;99.90
16955;DHT22;8594;52.052;8.354;2023-02-01T14:44:52;5.90;99.90
16955;DHT22;8594;52.052;8.354;2023-02-01T14:47:34;5.80;99.90
16955;DHT22;8594;52.052;8.354;2023-02-01T14:50:31;5.80;99.90
16955;DHT22;8594;52.052;8.354;2023-02-01T14:53:19;5.80;99.90
16955;DHT22;8594;52.052;8.354;2023-02-01T14:55:52;5.80;99.90
16955;DHT22;8594;52.052;8.354;2023-02-01T14:58:32;5.80;99.90
16955;DHT22;8594;52.052;8.354;2023-02-01T15:01:22;6.00;99.90
16955;DHT22;8594;52.052;8.354;2023-02-01T15:03:55;6.10;99.90
16955;DHT22;8594;52.052;8.354;2023-02-01T15:06:31;6.00;99.90
16955;DHT22;8594;52.052;8.354;2023-02-01T15:09:07;6.10;99.90
16955;DHT22;8594;52.052;8.354;2023-02-01T15:11:56;6.20;99.90
16955;DHT22;8594;52.052;8.354;2023-02-01T15:14:25;6.40;99.90
16955;DHT22;8594;52.052;8.354;2023-02-01T15:16:54;6.50;99.90
16955;DHT22;8594;52.052;8.354;2023-02-01T15:19:22;6.30;99.90
16955;DHT22;8594;52.052;8.354;2023-02-01T15:21:52;6.30;99.90
16955;DHT22;8594;52.052;8.354;2023-02-01T15:24:23;6.40;99.90
16955;DHT22;8594;52.052;8.354;2023-02-01T15:26:52;6.50;99.90
16955;DHT22;8594;52.052;8.354;2023-02-01T15:29:22;6.40;99.90
16955;DHT22;8594;52.052;8.354;2023-02-01T15:31:51;6.30;99.90
16955;DHT22;8594;52.052;8.354;2023-02-01T15:34:21;6.20;99.90
16955;DHT22;8594;52.052;8.354;2023-02-01T15:36:49;6.30;99.90
16955;DHT22;8594;52.052;8.354;2023-02-01T15:39:19;6.10;99.90
16955;DHT22;8594;52.052;8.354;2023-02-01T15:41:53;6.10;99.90
16955;DHT22;8594;52.052;8.354;2023-02-01T15:44:31;6.10;99.90
16955;DHT22;8594;52.052;8.354;2023-02-01T15:47:06;6.00;99.90
16955;DHT22;8594;52.052;8.354;2023-02-01T15:49:40;6.10;99.90
16955;DHT22;8594;52.052;8.354;2023-02-01T15:52:20;6.30;99.90
16955;DHT22;8594;52.052;8.354;2023-02-01T15:54:52;6.40;99.90
16955;DHT22;8594;52.052;8.354;2023-02-01T15:57:24;6.50;99.90
16955;DHT22;8594;52.052;8.354;2023-02-01T15:59:58;6.60;99.90
16955;DHT22;8594;52.052;8.354;2023-02-01T16:02:33;6.50;99.90
16955;DHT22;8594;52.052;8.354;2023-02-01T16:05:04;6.60;99.90
16955;DHT22;8594;52.052;8.354;2023-02-01T16:07:33;6.60;99.90
16955;DHT22;8594;52.052;8.354;2023-02-01T16:10:02;6.70;99.90
16955;DHT22;8594;52.052;8.354;2023-02-01T16:12:49;6.70;99.90
16955;DHT22;8594;52.052;8.354;2023-02-01T16:15:18;6.60;99.90
16955;DHT22;8594;52.052;8.354;2023-02-01T16:17:46;6.60;99.90
16955;DHT22;8594;52.052;8.354;2023-02-01T16:20:13;6.50;99.90
16955;DHT22;8594;52.052;8.354;2023-02-01T16:22:40;6.60;99.90
16955;DHT22;8594;52.052;8.354;2023-02-01T16:25:07;6.60;99.90
16955;DHT22;8594;52.052;8.354;2023-02-01T16:27:35;6.70;99.90
16955;DHT22;8594;52.052;8.354;2023-02-01T16:30:02;6.70;99.90
16955;DHT22;8594;52.052;8.354;2023-02-01T16:32:30;6.80;99.90
16955;DHT22;8594;52.052;8.354;2023-02-01T16:34:58;6.80;99.90
16955;DHT22;8594;52.052;8.354;2023-02-01T16:37:25;6.90;99.90
16955;DHT22;8594;52.052;8.354;2023-02-01T16:39:53;6.90;99.90
16955;DHT22;8594;52.052;8.354;2023-02-01T16:42:20;7.00;99.90
16955;DHT22;8594;52.052;8.354;2023-02-01T16:44:46;6.70;99.90
16955;DHT22;8594;52.052;8.354;2023-02-01T16:47:18;6.90;99.90
16955;DHT22;8594;52.052;8.354;2023-02-01T16:49:47;6.90;99.90
16955;DHT22;8594;52.052;8.354;2023-02-01T16:52:18;6.70;99.90
16955;DHT22;8594;52.052;8.354;2023-02-01T16:54:47;6.70;99.90
16955;DHT22;8594;52.052;8.354;2023-02-01T16:57:16;6.60;99.90
16955;DHT22;8594;52.052;8.354;2023-02-01T16:59:44;6.50;99.90
16955;DHT22;8594;52.052;8.354;2023-02-01T17:02:12;6.60;99.90